This is the latest recevied weather packets stored in our database for station/object M0TJX-1. If no packets are shown the sender has not sent any weather packets the latest 10 day(s).
| Time | Temp. | Humidity | Pressure | Rain* | Wind** | Luminosity | Snow |
|---|---|---|---|---|---|---|---|
| 1787911821 | 20° C | 80% | 1005.6 hPa | 0 mm | - | - | - |
| 1787910921 | 18.89° C | 85% | 1005.7 hPa | 0 mm | - | - | - |
| 1787910021 | 20° C | 76% | 1006 hPa | 0 mm | - | - | - |
| 1787909121 | 20° C | 76% | 1005.8 hPa | 0 mm | - | - | - |
| 1787908221 | 19.44° C | 80% | 1005.7 hPa | 0 mm | - | - | - |
| 1787907321 | 18.89° C | 81% | 1005.8 hPa | 0 mm | - | - | - |
| 1787906421 | 18.33° C | 81% | 1005.8 hPa | 0 mm | - | - | - |
| 1787905521 | 17.78° C | 85% | 1005.7 hPa | 0 mm | - | - | - |
| 1787904621 | 17.22° C | 86% | 1006.1 hPa | 0 mm | - | - | - |
| 1787903721 | 16.67° C | 88% | 1006.1 hPa | 0 mm | - | - | - |
| 1787902821 | 16.67° C | 90% | 1006.1 hPa | 0 mm | - | - | - |
| 1787901921 | 16.11° C | 92% | 1006.1 hPa | 0 mm | - | - | - |
| 1787900121 | 15° C | 94% | 1006 hPa | 0 mm | - | - | - |
| 1787899222 | 15° C | 94% | 1006 hPa | 0 mm | - | - | - |
| 1787898321 | 14.44° C | 94% | 1006.2 hPa | 0 mm | - | - | - |
| 1787897421 | 14.44° C | 94% | 1006 hPa | 0 mm | - | - | - |
| 1787896522 | 14.44° C | 94% | 1005.9 hPa | 0 mm | - | - | - |
| 1787895622 | 14.44° C | 94% | 1006 hPa | 0 mm | - | - | - |
| 1787894722 | 14.44° C | 94% | 1006 hPa | 0 mm | - | - | - |
| 1787893822 | 14.44° C | 93% | 1006.1 hPa | 0 mm | - | - | - |
| 1787892922 | 14.44° C | 93% | 1006.2 hPa | 0 mm | - | - | - |
| 1787892022 | 14.44° C | 93% | 1006.4 hPa | 0 mm | - | - | - |
| 1787891122 | 14.44° C | 93% | 1006.4 hPa | 0 mm | - | - | - |
| 1787890222 | 15° C | 93% | 1006.4 hPa | 0 mm | - | - | - |
| 1787889322 | 15° C | 93% | 1006.4 hPa | 0 mm | - | - | - |
* Rain latest hour (hover to see other rain measurements)
** Current wind speed in m/s (hover to see current wind gust speed)